This is the latest recevied weather packets stored in our database for station/object W0SS-13. If no packets are shown the sender has not sent any weather packets the latest 10 day(s).
| Time | Temp. | Humidity | Pressure | Rain* | Wind** | Luminosity | Snow |
|---|---|---|---|---|---|---|---|
| 1777966638 | 10° C | 81% | 1009.4 hPa | 7.87 mm | - | 0 W/m² | - |
| 1777966336 | 10.56° C | 77% | 1009.8 hPa | 4.83 mm | - | 0 W/m² | - |
| 1777966032 | 10.56° C | 76% | 1010.3 hPa | 4.83 mm | - | 0 W/m² | - |
| 1777965728 | 11.11° C | 75% | 1010.1 hPa | 6.1 mm | - | 0 W/m² | - |
| 1777965424 | 11.67° C | 72% | 1010.4 hPa | 6.1 mm | - | 0 W/m² | - |
| 1777965122 | 11.67° C | 71% | 1010.3 hPa | 6.1 mm | - | 0 W/m² | - |
| 1777964819 | 11.67° C | 73% | 1010.1 hPa | 3.05 mm | - | 0 W/m² | - |
| 1777964515 | 12.22° C | 75% | 1009.9 hPa | 1.27 mm | - | 0 W/m² | - |
| 1777964211 | 12.78° C | 72% | 1009.2 hPa | 1.27 mm | - | 0 W/m² | - |
| 1777963908 | 12.78° C | 72% | 1008.9 hPa | 0 mm | - | 0 W/m² | - |
| 1777963605 | 12.78° C | 71% | 1009 hPa | 1.78 mm | - | 0 W/m² | - |
| 1777963303 | 13.33° C | 70% | 1009 hPa | 1.78 mm | - | 0 W/m² | - |
| 1777963000 | 13.89° C | 71% | 1008.3 hPa | 0 mm | - | 0 W/m² | - |
| 1777962696 | 13.89° C | 71% | 1008.1 hPa | 0 mm | - | 0 W/m² | - |
| 1777962393 | 14.44° C | 73% | 1008.2 hPa | 0 mm | - | 0 W/m² | - |
| 1777962090 | 13.89° C | 75% | 1007.8 hPa | 1.27 mm | - | 0 W/m² | - |
| 1777961787 | 13.89° C | 77% | 1007.6 hPa | 3.05 mm | - | 0 W/m² | - |
| 1777961485 | 13.89° C | 81% | 1007.4 hPa | 3.56 mm | - | 0 W/m² | - |
| 1777961182 | 13.89° C | 80% | 1007.8 hPa | 3.05 mm | - | 0 W/m² | - |
| 1777960879 | 14.44° C | 76% | 1007.5 hPa | 6.1 mm | - | 0 W/m² | - |
| 1777960574 | 14.44° C | 76% | 1007.1 hPa | 7.87 mm | - | 0 W/m² | - |
| 1777960271 | 15° C | 74% | 1006.4 hPa | 6.1 mm | - | 0 W/m² | - |
| 1777959968 | 15.56° C | 71% | 1006.2 hPa | 3.05 mm | - | 0 W/m² | - |
| 1777959667 | 16.11° C | 68% | 1006.1 hPa | 0 mm | - | 0 W/m² | - |
| 1777959363 | 17.22° C | 63% | 1006 hPa | 0 mm | - | 0 W/m² | - |
* Rain latest hour (hover to see other rain measurements)
** Current wind speed in m/s (hover to see current wind gust speed)